Time;durP1;ratioP1;P1;durP2;ratioP2;P2;SDS_P1;SDS_P2;PMS_P1;PMS_P2;Temp;Humidity;BMP_temperature;BMP_pressure;BME280_temperature;BME280_humidity;BME280_pressure;Samples;Min_cycle;Max_cycle;Signal;HPM_P1;HPM_P2
2021/06/20 00:01:44;;;;;;;22.08;19.77;;;18.70;99.90;;;;;;5033022;28;20432;-84
2021/06/20 00:04:11;;;;;;;21.77;19.48;;;18.70;99.90;;;;;;5068562;28;20029;-84
2021/06/20 00:06:41;;;;;;;23.67;21.15;;;18.70;99.90;;;;;;5045021;28;20040;-84
2021/06/20 00:09:11;;;;;;;21.77;19.58;;;18.70;99.90;;;;;;5047597;28;20049;-84
2021/06/20 00:11:38;;;;;;;22.17;19.15;;;18.70;99.90;;;;;;5046133;28;20545;-83
2021/06/20 00:14:05;;;;;;;22.75;20.30;;;18.70;99.90;;;;;;5050131;28;20078;-84
2021/06/20 00:16:33;;;;;;;21.27;19.05;;;18.80;99.90;;;;;;5052415;28;20036;-85
2021/06/20 00:19:01;;;;;;;22.25;19.85;;;18.80;99.90;;;;;;5052440;28;20475;-85
2021/06/20 00:21:27;;;;;;;23.77;21.27;;;18.80;99.90;;;;;;5067711;28;20052;-84
2021/06/20 00:23:53;;;;;;;23.63;21.23;;;18.90;99.90;;;;;;5058499;28;20017;-83
2021/06/20 00:26:19;;;;;;;22.50;20.08;;;18.90;99.90;;;;;;5071014;28;20044;-84
2021/06/20 00:28:47;;;;;;;23.20;20.05;;;18.90;99.90;;;;;;5051661;28;20104;-84
2021/06/20 00:31:14;;;;;;;20.15;18.00;;;18.90;99.90;;;;;;5050416;28;20080;-84
2021/06/20 00:33:40;;;;;;;20.33;18.25;;;18.90;99.90;;;;;;5052107;28;20085;-84
2021/06/20 00:36:07;;;;;;;23.65;21.13;;;18.90;99.90;;;;;;5051667;28;20021;-84
2021/06/20 00:38:34;;;;;;;23.20;20.75;;;18.90;99.90;;;;;;5052403;28;20408;-85
2021/06/20 00:41:02;;;;;;;23.50;20.88;;;19.00;99.90;;;;;;5051911;28;20108;-83
2021/06/20 00:43:28;;;;;;;21.77;19.55;;;19.00;99.90;;;;;;5017795;28;20754;-83
2021/06/20 00:45:54;;;;;;;24.02;21.45;;;19.00;99.90;;;;;;5049722;28;20036;-84
2021/06/20 00:48:20;;;;;;;24.05;20.60;;;19.00;99.90;;;;;;5049797;28;20052;-84
2021/06/20 00:50:48;;;;;;;20.77;18.58;;;19.00;99.90;;;;;;5050655;28;20072;-84
2021/06/20 00:53:14;;;;;;;21.58;19.25;;;19.10;99.90;;;;;;5049897;28;20062;-84
2021/06/20 00:55:40;;;;;;;24.35;21.20;;;19.10;99.90;;;;;;5013108;28;20037;-84
2021/06/20 00:58:08;;;;;;;22.55;20.15;;;19.10;99.90;;;;;;5016917;28;20480;-84
2021/06/20 01:00:42;;;;;;;22.63;20.25;;;19.20;99.90;;;;;;5050032;28;20021;-85
2021/06/20 01:03:08;;;;;;;24.58;21.05;;;19.20;99.90;;;;;;5053114;28;20021;-85
2021/06/20 01:05:34;;;;;;;21.30;19.00;;;19.20;99.90;;;;;;5038305;28;20033;-86
2021/06/20 01:08:00;;;;;;;21.80;18.48;;;19.20;99.90;;;;;;5056074;28;20050;-85
2021/06/20 01:10:29;;;;;;;22.90;20.38;;;19.20;99.90;;;;;;5054500;28;20039;-85
2021/06/20 01:12:56;;;;;;;20.52;18.35;;;19.30;99.90;;;;;;5055021;28;20076;-86
2021/06/20 01:15:22;;;;;;;22.80;18.00;;;19.30;99.90;;;;;;5053805;28;20036;-85
2021/06/20 01:17:48;;;;;;;20.60;17.17;;;19.30;99.90;;;;;;5021043;28;20040;-84
2021/06/20 01:20:17;;;;;;;20.00;17.15;;;19.30;99.90;;;;;;5054403;28;20086;-84
2021/06/20 01:22:48;;;;;;;18.60;16.42;;;19.30;99.90;;;;;;5054061;28;20040;-85
2021/06/20 01:25:16;;;;;;;18.40;16.15;;;19.40;99.90;;;;;;5052964;28;20036;-85
2021/06/20 01:27:53;;;;;;;21.75;17.80;;;19.40;99.90;;;;;;5055187;28;20072;-85
2021/06/20 01:30:25;;;;;;;18.10;16.20;;;19.40;99.90;;;;;;5054677;28;20029;-86
2021/06/20 01:32:52;;;;;;;18.67;15.77;;;19.40;99.90;;;;;;5052203;28;20032;-85
2021/06/20 01:35:18;;;;;;;17.60;15.75;;;19.50;99.90;;;;;;5054821;28;20456;-86
2021/06/20 01:37:45;;;;;;;23.20;20.70;;;19.50;99.90;;;;;;5035946;28;20033;-86
2021/06/20 01:40:14;;;;;;;22.40;19.85;;;19.50;99.90;;;;;;5053548;28;20381;-85
2021/06/20 01:42:39;;;;;;;20.67;18.52;;;19.50;99.90;;;;;;5053841;28;20025;-85
2021/06/20 01:45:08;;;;;;;20.88;18.60;;;19.50;99.90;;;;;;5053349;28;20039;-85
2021/06/20 01:47:34;;;;;;;20.15;17.58;;;19.50;99.90;;;;;;5055015;28;20040;-84
2021/06/20 01:50:02;;;;;;;25.38;22.65;;;19.50;99.90;;;;;;5054939;28;20100;-85
2021/06/20 01:52:28;;;;;;;25.55;21.90;;;19.50;99.90;;;;;;5054787;28;20412;-85
2021/06/20 01:54:55;;;;;;;21.25;18.98;;;19.50;99.90;;;;;;5053672;28;20475;-85
2021/06/20 01:57:35;;;;;;;19.75;17.65;;;19.40;99.90;;;;;;5053533;28;20029;-84
2021/06/20 02:00:06;;;;;;;19.23;15.90;;;19.50;99.90;;;;;;5054414;28;20017;-85
2021/06/20 02:02:32;;;;;;;17.50;15.63;;;19.50;99.90;;;;;;5054469;28;20470;-85
2021/06/20 02:04:57;;;;;;;19.92;16.88;;;19.50;99.90;;;;;;5054040;28;20032;-85
2021/06/20 02:07:28;;;;;;;18.67;16.67;;;19.50;99.90;;;;;;5053263;28;20055;-85
2021/06/20 02:10:00;;;;;;;18.73;15.55;;;19.50;99.90;;;;;;5061055;28;20028;-84
2021/06/20 02:12:27;;;;;;;19.35;17.13;;;19.50;99.90;;;;;;5069599;28;20105;-85
2021/06/20 02:14:53;;;;;;;18.48;16.17;;;19.50;99.90;;;;;;5074468;28;20015;-84
2021/06/20 02:17:22;;;;;;;16.88;15.10;;;19.60;99.90;;;;;;5069719;28;20060;-86
2021/06/20 02:19:48;;;;;;;18.90;16.42;;;19.60;99.90;;;;;;5054801;28;20048;-85
2021/06/20 02:22:14;;;;;;;20.98;17.10;;;19.60;99.90;;;;;;5053380;28;20021;-85
2021/06/20 02:24:40;;;;;;;19.25;17.20;;;19.60;99.90;;;;;;5051817;28;20408;-85
2021/06/20 02:27:09;;;;;;;20.55;16.63;;;19.60;99.90;;;;;;5053139;28;20027;-84
2021/06/20 02:29:35;;;;;;;18.88;16.00;;;19.70;99.90;;;;;;5054561;28;20114;-84
2021/06/20 02:32:03;;;;;;;19.10;16.77;;;19.70;99.90;;;;;;5053468;28;20397;-84
2021/06/20 02:34:29;;;;;;;19.55;17.45;;;19.70;99.90;;;;;;5053110;28;20124;-86
2021/06/20 02:36:54;;;;;;;18.85;16.77;;;19.70;99.90;;;;;;5052762;28;20111;-86
2021/06/20 02:39:20;;;;;;;19.25;16.52;;;19.70;99.90;;;;;;5054204;28;20458;-86
2021/06/20 02:41:49;;;;;;;22.40;18.75;;;19.80;99.90;;;;;;5052490;28;20029;-85
2021/06/20 02:44:15;;;;;;;22.15;19.75;;;19.80;99.90;;;;;;5052684;28;20462;-85
2021/06/20 02:46:41;;;;;;;23.73;20.90;;;19.70;99.90;;;;;;5054080;28;20033;-85
2021/06/20 02:49:06;;;;;;;26.77;23.90;;;19.70;99.90;;;;;;5052572;28;20090;-85
2021/06/20 02:51:32;;;;;;;26.38;23.20;;;19.70;99.90;;;;;;5052518;28;20025;-85
2021/06/20 02:53:58;;;;;;;33.10;27.30;;;19.70;99.90;;;;;;5053415;28;20028;-85
2021/06/20 02:56:24;;;;;;;28.70;25.55;;;19.60;99.90;;;;;;5051756;28;20529;-86
2021/06/20 02:58:50;;;;;;;27.77;24.67;;;19.60;99.90;;;;;;5052631;28;20064;-85
2021/06/20 03:01:17;;;;;;;25.75;22.70;;;19.50;99.90;;;;;;5053599;28;20053;-85
2021/06/20 03:03:44;;;;;;;25.92;21.58;;;19.50;99.90;;;;;;5053844;28;20025;-85
2021/06/20 03:06:11;;;;;;;24.25;20.85;;;19.50;99.90;;;;;;5054035;28;20373;-85
2021/06/20 03:08:37;;;;;;;24.13;20.98;;;19.50;99.90;;;;;;5053506;28;20037;-85
2021/06/20 03:11:02;;;;;;;24.30;21.13;;;19.50;99.90;;;;;;5051930;28;20029;-85
2021/06/20 03:13:28;;;;;;;22.33;19.65;;;19.60;99.90;;;;;;5052384;28;20063;-85
2021/06/20 03:15:55;;;;;;;24.60;20.40;;;19.60;99.90;;;;;;5053566;28;20029;-85
2021/06/20 03:18:21;;;;;;;29.13;25.63;;;19.60;99.90;;;;;;5051954;28;20025;-86
2021/06/20 03:20:47;;;;;;;28.70;24.90;;;19.50;99.90;;;;;;5052458;28;20515;-85
2021/06/20 03:23:13;;;;;;;27.85;24.75;;;19.50;99.90;;;;;;5053260;28;20021;-85
2021/06/20 03:25:43;;;;;;;30.10;26.83;;;19.40;99.90;;;;;;5051682;28;20469;-85
2021/06/20 03:28:09;;;;;;;31.05;27.67;;;19.40;99.90;;;;;;5053512;28;20065;-85
2021/06/20 03:30:36;;;;;;;33.03;27.25;;;19.30;99.90;;;;;;5051787;28;20052;-85
2021/06/20 03:33:02;;;;;;;34.63;30.90;;;19.30;99.90;;;;;;5051945;28;20029;-85
2021/06/20 03:35:28;;;;;;;30.80;26.92;;;19.30;99.90;;;;;;5053131;28;20373;-86
2021/06/20 03:37:54;;;;;;;34.60;29.80;;;19.20;99.90;;;;;;5055638;28;20060;-84
2021/06/20 03:40:21;;;;;;;37.50;32.00;;;19.20;99.90;;;;;;5056132;28;20075;-85
2021/06/20 03:42:47;;;;;;;39.72;35.42;;;19.20;99.90;;;;;;5056285;28;20135;-84
2021/06/20 03:45:13;;;;;;;48.30;41.47;;;19.10;99.90;;;;;;5056087;28;20107;-85
2021/06/20 03:47:40;;;;;;;53.67;44.20;;;19.00;99.90;;;;;;5055926;28;20534;-84
2021/06/20 03:50:07;;;;;;;53.10;43.30;;;19.00;99.90;;;;;;5039526;28;20039;-85
2021/06/20 03:52:33;;;;;;;44.83;37.97;;;18.90;99.90;;;;;;5057279;28;20017;-84
2021/06/20 03:54:58;;;;;;;42.88;36.80;;;18.90;99.90;;;;;;5056956;28;20023;-84
2021/06/20 03:57:25;;;;;;;53.15;43.67;;;18.90;99.90;;;;;;5056117;28;20086;-84
2021/06/20 03:59:50;;;;;;;52.15;42.78;;;18.80;99.90;;;;;;5057292;28;20021;-84
2021/06/20 04:02:17;;;;;;;47.00;39.92;;;18.70;99.90;;;;;;5056848;28;20370;-84
2021/06/20 04:04:44;;;;;;;46.25;38.70;;;18.60;99.90;;;;;;5061041;28;20027;-84
2021/06/20 04:07:12;;;;;;;47.58;39.10;;;18.60;99.90;;;;;;5074499;28;20029;-84
2021/06/20 04:09:41;;;;;;;44.95;37.90;;;18.50;99.90;;;;;;5062708;28;20020;-84
2021/06/20 04:12:10;;;;;;;38.70;33.65;;;18.50;99.90;;;;;;5057320;28;20072;-84
2021/06/20 04:14:37;;;;;;;36.78;31.13;;;18.40;99.90;;;;;;5070630;28;20005;-83
2021/06/20 04:17:03;;;;;;;34.28;29.15;;;18.30;99.90;;;;;;5059237;28;20355;-84
2021/06/20 04:19:29;;;;;;;38.33;31.02;;;18.30;99.90;;;;;;5055406;28;20027;-84
2021/06/20 04:21:55;;;;;;;36.40;29.92;;;18.30;99.90;;;;;;5055246;28;20029;-83
2021/06/20 04:24:21;;;;;;;37.10;29.75;;;18.30;99.90;;;;;;5055302;28;20051;-83
2021/06/20 04:26:47;;;;;;;33.45;27.42;;;18.30;99.90;;;;;;5055465;28;20548;-83
2021/06/20 04:29:12;;;;;;;35.85;28.90;;;18.30;99.90;;;;;;5056931;28;20025;-83
2021/06/20 04:31:38;;;;;;;34.17;27.60;;;18.20;99.90;;;;;;5055126;28;20120;-84
2021/06/20 04:34:04;;;;;;;34.60;28.23;;;18.30;99.90;;;;;;5055419;28;20028;-84
2021/06/20 04:36:30;;;;;;;33.30;27.05;;;18.30;99.90;;;;;;5056530;28;20025;-84
2021/06/20 04:38:56;;;;;;;47.92;36.97;;;18.30;99.90;;;;;;5056567;28;20372;-85
2021/06/20 04:41:22;;;;;;;55.97;41.05;;;18.40;99.90;;;;;;5056293;28;20397;-84
2021/06/20 04:46:27;;;;;;;57.45;40.35;;;18.30;99.90;;;;;;5055656;28;20043;-84
2021/06/20 04:48:55;;;;;;;58.00;44.55;;;18.30;99.90;;;;;;5056073;28;20037;-84
2021/06/20 04:51:21;;;;;;;56.13;41.38;;;18.30;99.90;;;;;;5054964;28;20047;-84
2021/06/20 04:53:47;;;;;;;49.28;38.13;;;18.30;99.90;;;;;;5054761;28;20017;-84
2021/06/20 04:56:14;;;;;;;55.05;41.58;;;18.30;99.90;;;;;;5054761;28;20021;-85
2021/06/20 04:58:41;;;;;;;49.28;37.42;;;18.30;99.90;;;;;;5054954;28;20040;-85
2021/06/20 05:01:10;;;;;;;48.67;36.65;;;18.40;99.90;;;;;;5054588;28;20040;-84
2021/06/20 05:03:37;;;;;;;50.30;39.95;;;18.40;99.90;;;;;;5055590;28;20031;-84
2021/06/20 05:06:06;;;;;;;46.38;35.10;;;18.40;99.90;;;;;;5054281;28;20024;-86
2021/06/20 05:08:32;;;;;;;48.38;34.85;;;18.40;99.90;;;;;;5054778;28;20049;-84
2021/06/20 05:10:58;;;;;;;46.33;34.88;;;18.40;99.90;;;;;;5054226;28;20045;-86
2021/06/20 05:13:25;;;;;;;41.17;31.70;;;18.50;99.90;;;;;;5055813;28;20033;-84
2021/06/20 05:15:50;;;;;;;44.75;33.40;;;18.50;99.90;;;;;;5038312;28;20106;-85
2021/06/20 05:18:17;;;;;;;50.72;34.55;;;18.50;99.90;;;;;;5054384;28;20465;-84
2021/06/20 05:20:44;;;;;;;50.28;37.25;;;18.50;99.90;;;;;;5037850;28;20028;-85
2021/06/20 05:23:12;;;;;;;42.70;33.22;;;18.50;99.90;;;;;;5055375;28;20064;-84
2021/06/20 05:25:41;;;;;;;50.25;36.20;;;18.50;99.90;;;;;;5055495;28;20028;-85
2021/06/20 05:28:07;;;;;;;44.35;33.08;;;18.50;99.90;;;;;;5055159;28;20043;-85
2021/06/20 05:30:32;;;;;;;45.60;33.95;;;18.60;99.90;;;;;;5054093;28;20374;-84
2021/06/20 05:32:59;;;;;;;44.40;32.20;;;18.60;99.90;;;;;;5054040;28;20021;-85
2021/06/20 05:35:25;;;;;;;43.15;30.45;;;18.60;99.90;;;;;;5053676;28;20017;-82
2021/06/20 05:37:52;;;;;;;55.50;40.40;;;18.60;99.90;;;;;;5055004;28;20082;-85
2021/06/20 05:40:18;;;;;;;55.17;41.45;;;18.60;99.90;;;;;;5053829;28;20029;-85
2021/06/20 05:42:43;;;;;;;59.38;41.72;;;18.60;99.90;;;;;;5054701;28;20029;-84
2021/06/20 05:45:10;;;;;;;56.08;40.92;;;18.60;99.90;;;;;;5054948;28;20056;-84
2021/06/20 05:47:35;;;;;;;54.25;39.50;;;18.60;99.90;;;;;;5054980;28;20128;-85
2021/06/20 05:50:01;;;;;;;48.17;36.35;;;18.60;99.90;;;;;;5054853;28;20469;-83
2021/06/20 05:52:28;;;;;;;51.25;39.35;;;18.60;99.90;;;;;;5054758;28;20021;-86
2021/06/20 05:54:54;;;;;;;49.67;37.08;;;18.60;99.90;;;;;;5055339;28;20033;-84
2021/06/20 05:57:23;;;;;;;56.28;41.08;;;18.60;99.90;;;;;;5070016;28;20059;-84
2021/06/20 05:59:49;;;;;;;62.08;42.88;;;18.60;99.90;;;;;;5076643;28;20045;-82
2021/06/20 06:02:15;;;;;;;53.65;40.10;;;18.60;99.90;;;;;;5054282;28;20029;-83
2021/06/20 06:04:43;;;;;;;50.03;38.28;;;18.60;99.90;;;;;;5055526;28;20021;-83
2021/06/20 06:07:09;;;;;;;51.63;37.72;;;18.70;99.90;;;;;;5053601;28;20033;-83
2021/06/20 06:09:38;;;;;;;53.17;38.10;;;18.70;99.90;;;;;;5036868;28;20029;-83
2021/06/20 06:12:05;;;;;;;55.20;37.85;;;18.70;99.90;;;;;;5052971;28;20112;-82
2021/06/20 06:14:31;;;;;;;50.60;36.85;;;18.80;99.90;;;;;;5054073;28;20028;-83
2021/06/20 06:16:57;;;;;;;55.25;40.22;;;18.90;99.90;;;;;;5052805;28;20032;-83
2021/06/20 06:19:24;;;;;;;52.15;37.78;;;19.00;99.90;;;;;;5058395;28;20064;-83
2021/06/20 06:21:50;;;;;;;54.67;39.10;;;19.00;99.90;;;;;;5069142;28;20067;-84
2021/06/20 06:24:18;;;;;;;52.70;37.25;;;19.00;99.90;;;;;;5054668;28;20068;-84
2021/06/20 06:26:44;;;;;;;44.58;33.80;;;19.10;99.90;;;;;;5053138;28;20033;-84
2021/06/20 06:29:15;;;;;;;51.00;37.80;;;19.00;99.90;;;;;;5053056;28;20112;-85
2021/06/20 06:31:41;;;;;;;53.28;39.42;;;19.00;99.90;;;;;;5052945;28;20029;-84
2021/06/20 06:34:12;;;;;;;47.20;35.45;;;19.00;99.90;;;;;;5052946;28;20037;-85
2021/06/20 06:36:38;;;;;;;48.13;34.47;;;19.00;99.90;;;;;;5054213;28;20108;-84
2021/06/20 06:39:04;;;;;;;46.85;33.33;;;19.00;99.90;;;;;;5052999;28;20429;-84
2021/06/20 06:41:31;;;;;;;50.00;35.88;;;19.10;99.90;;;;;;5053795;28;20032;-83
2021/06/20 06:43:58;;;;;;;44.30;34.10;;;19.20;99.90;;;;;;5053879;28;20021;-83
2021/06/20 06:46:25;;;;;;;46.47;34.40;;;19.30;99.90;;;;;;5053960;28;20028;-84
2021/06/20 06:48:51;;;;;;;45.45;34.63;;;19.30;99.90;;;;;;5053928;28;20049;-83
2021/06/20 06:51:16;;;;;;;43.95;34.08;;;19.40;99.90;;;;;;5052774;28;20029;-84
2021/06/20 06:53:42;;;;;;;51.25;36.22;;;19.50;99.90;;;;;;5052454;28;20429;-84
2021/06/20 06:56:07;;;;;;;49.70;37.10;;;19.50;99.90;;;;;;5052206;28;20021;-84
2021/06/20 06:58:34;;;;;;;52.72;40.40;;;19.60;99.90;;;;;;5054055;28;20029;-84
2021/06/20 07:01:01;;;;;;;45.97;35.00;;;19.60;99.90;;;;;;5051783;28;20419;-85
2021/06/20 07:03:27;;;;;;;46.40;34.97;;;19.60;99.90;;;;;;5051964;28;20025;-83
2021/06/20 07:05:57;;;;;;;48.42;35.88;;;19.60;99.90;;;;;;5053917;28;20021;-84
2021/06/20 07:08:23;;;;;;;49.13;38.90;;;19.60;99.90;;;;;;5053618;28;20377;-83
2021/06/20 07:10:50;;;;;;;48.53;38.10;;;19.50;99.90;;;;;;5051875;28;20025;-84
2021/06/20 07:13:15;;;;;;;47.53;37.22;;;19.50;99.90;;;;;;5053841;28;20098;-85
2021/06/20 07:15:42;;;;;;;42.67;34.20;;;19.40;99.90;;;;;;5052038;28;20021;-83
2021/06/20 07:18:08;;;;;;;49.08;37.45;;;19.40;99.90;;;;;;5053657;28;20056;-83
2021/06/20 07:20:34;;;;;;;43.00;34.33;;;19.40;99.90;;;;;;5052267;28;20017;-83
2021/06/20 07:22:59;;;;;;;45.58;35.97;;;19.50;99.90;;;;;;5052138;28;20041;-83
2021/06/20 07:25:26;;;;;;;42.15;33.38;;;19.50;99.90;;;;;;5051460;28;20036;-82
2021/06/20 07:27:52;;;;;;;42.30;33.28;;;19.50;99.90;;;;;;5051411;28;20087;-83
2021/06/20 07:30:20;;;;;;;41.70;32.70;;;19.60;99.90;;;;;;5051992;28;20029;-84
2021/06/20 07:32:50;;;;;;;45.30;35.00;;;19.60;99.90;;;;;;5053280;28;20544;-83
2021/06/20 07:35:17;;;;;;;40.75;32.92;;;19.60;99.90;;;;;;5035934;28;20064;-83
2021/06/20 07:37:46;;;;;;;47.05;35.75;;;19.60;99.90;;;;;;5051564;28;20025;-83
2021/06/20 07:40:13;;;;;;;44.35;35.90;;;19.60;99.90;;;;;;5052327;28;20086;-84
2021/06/20 07:42:39;;;;;;;43.25;34.15;;;19.70;99.90;;;;;;5051268;28;20025;-84
2021/06/20 07:45:07;;;;;;;39.67;31.60;;;19.90;99.90;;;;;;5053147;28;20081;-82
2021/06/20 07:47:33;;;;;;;41.42;32.25;;;20.10;99.90;;;;;;5037371;28;20041;-83
2021/06/20 07:49:58;;;;;;;37.60;29.00;;;20.30;99.90;;;;;;5066726;28;20017;-83
2021/06/20 07:52:24;;;;;;;35.90;27.98;;;20.40;99.90;;;;;;5072824;28;20025;-83
2021/06/20 07:54:50;;;;;;;38.10;29.05;;;20.50;99.90;;;;;;5054056;28;20029;-83
2021/06/20 07:57:20;;;;;;;36.17;27.73;;;20.60;99.90;;;;;;5053543;28;20112;-83
2021/06/20 07:59:49;;;;;;;35.42;27.98;;;20.70;99.90;;;;;;5052642;28;20078;-82
2021/06/20 08:02:16;;;;;;;34.63;26.58;;;20.70;99.90;;;;;;5052086;28;20029;-81
2021/06/20 08:04:44;;;;;;;34.10;27.63;;;20.70;99.90;;;;;;5035482;28;20037;-80
2021/06/20 08:07:12;;;;;;;29.33;24.40;;;20.60;99.90;;;;;;5052318;28;20029;-82
2021/06/20 08:09:37;;;;;;;31.60;24.50;;;20.60;99.90;;;;;;5035406;28;20554;-82
2021/06/20 08:12:09;;;;;;;28.08;21.88;;;20.50;99.90;;;;;;5051818;28;20049;-82
2021/06/20 08:14:39;;;;;;;24.55;19.95;;;20.50;99.90;;;;;;5053599;28;20029;-82
2021/06/20 08:17:13;;;;;;;29.08;22.63;;;20.50;99.90;;;;;;5052234;28;20060;-81
2021/06/20 08:19:39;;;;;;;30.00;22.90;;;20.50;99.90;;;;;;5051926;28;20025;-82
2021/06/20 08:22:08;;;;;;;27.63;22.00;;;20.40;99.90;;;;;;5052153;28;20036;-82
2021/06/20 08:24:35;;;;;;;33.00;23.27;;;20.40;99.90;;;;;;5056463;28;20477;-85
2021/06/20 08:27:07;;;;;;;27.33;20.80;;;20.40;99.90;;;;;;5071719;28;20080;-83
2021/06/20 08:29:33;;;;;;;27.67;22.60;;;20.30;99.90;;;;;;5059125;28;20128;-82
2021/06/20 08:32:00;;;;;;;31.13;22.85;;;20.20;99.90;;;;;;5055623;28;20021;-82
2021/06/20 08:34:29;;;;;;;28.80;22.95;;;20.20;99.90;;;;;;5055208;28;20116;-83
2021/06/20 08:36:56;;;;;;;29.58;22.55;;;20.20;99.90;;;;;;5056630;28;20043;-83
2021/06/20 08:39:23;;;;;;;28.10;20.65;;;20.20;99.90;;;;;;5038851;28;20462;-82
2021/06/20 08:41:49;;;;;;;25.25;20.08;;;20.20;99.90;;;;;;5055877;28;20067;-83
2021/06/20 08:44:28;;;;;;;26.75;21.02;;;20.20;99.90;;;;;;5038361;28;20049;-83
2021/06/20 08:47:26;;;;;;;31.77;23.52;;;20.20;99.90;;;;;;5056110;28;20048;-82
2021/06/20 08:50:01;;;;;;;31.00;21.00;;;20.20;99.90;;;;;;5055429;28;20128;-83
2021/06/20 08:52:28;;;;;;;25.63;20.00;;;20.10;99.90;;;;;;5056053;28;20029;-82
2021/06/20 08:55:07;;;;;;;28.65;21.73;;;20.00;99.90;;;;;;5054436;28;20040;-83
2021/06/20 08:57:51;;;;;;;28.35;20.50;;;20.00;99.90;;;;;;5054893;28;20025;-82
2021/06/20 09:00:19;;;;;;;30.17;20.55;;;20.10;99.90;;;;;;5054630;28;20028;-83
2021/06/20 09:03:00;;;;;;;30.02;22.33;;;20.20;99.90;;;;;;5054838;28;20075;-82
2021/06/20 09:05:28;;;;;;;28.00;21.02;;;20.30;99.90;;;;;;5054902;28;20029;-83
2021/06/20 09:07:55;;;;;;;30.48;22.30;;;20.40;99.90;;;;;;5037252;28;20079;-83
2021/06/20 09:10:28;;;;;;;25.30;18.85;;;20.40;99.90;;;;;;5053800;28;20037;-83
2021/06/20 09:13:00;;;;;;;25.40;17.92;;;20.60;99.90;;;;;;5055101;28;20040;-83
2021/06/20 09:15:30;;;;;;;24.65;18.85;;;20.70;99.90;;;;;;5055471;28;20079;-83
2021/06/20 09:17:58;;;;;;;23.45;18.73;;;20.90;99.90;;;;;;5055250;28;20025;-82
2021/06/20 09:20:41;;;;;;;20.20;17.75;;;21.10;99.90;;;;;;5053852;28;20032;-82
2021/06/20 09:23:16;;;;;;;;;;;21.30;99.90;;;;;;5054933;28;20111;-81
2021/06/20 09:25:45;;;;;;;19.58;15.35;;;21.50;99.90;;;;;;5055739;28;19905;-82
2021/06/20 09:28:13;;;;;;;21.77;17.23;;;21.80;99.90;;;;;;5055275;28;20029;-81
2021/06/20 09:30:53;;;;;;;20.13;15.82;;;22.10;99.90;;;;;;5055351;28;20359;-81
2021/06/20 09:33:22;;;;;;;17.38;14.38;;;22.30;99.90;;;;;;5052486;28;20389;-82
2021/06/20 09:35:56;;;;;;;18.25;13.85;;;22.60;99.90;;;;;;5036189;28;20450;-83
2021/06/20 09:38:34;;;;;;;16.42;14.07;;;22.90;99.90;;;;;;5053077;28;20059;-83
2021/06/20 09:41:11;;;;;;;21.50;15.60;;;23.10;99.90;;;;;;5054750;28;20020;-83
2021/06/20 09:44:03;;;;;;;17.13;13.88;;;23.30;99.90;;;;;;5048663;28;20029;-81
2021/06/20 09:46:31;;;;;;;14.73;11.55;;;23.70;99.90;;;;;;5068874;28;20047;-81
2021/06/20 09:48:57;;;;;;;14.82;11.75;;;24.20;99.90;;;;;;5055071;28;20043;-81
2021/06/20 09:51:29;;;;;;;16.00;12.18;;;24.70;99.90;;;;;;5053324;28;20021;-82
2021/06/20 09:53:56;;;;;;;15.77;12.52;;;24.60;99.90;;;;;;5038522;28;20481;-82
2021/06/20 09:56:30;;;;;;;14.45;10.73;;;24.10;99.90;;;;;;5054751;28;20040;-80
2021/06/20 09:59:04;;;;;;;15.35;12.65;;;23.60;99.90;;;;;;5055059;28;20029;-81
2021/06/20 10:01:32;;;;;;;14.02;10.63;;;23.60;99.90;;;;;;5054781;28;20023;-81
2021/06/20 10:03:58;;;;;;;10.88;8.98;;;23.80;99.90;;;;;;5055100;28;20448;-82
2021/06/20 10:06:27;;;;;;;10.82;8.32;;;24.40;99.90;;;;;;5055629;28;20036;-82
2021/06/20 10:08:56;;;;;;;9.75;8.20;;;25.00;99.90;;;;;;5053139;28;20358;-83
2021/06/20 10:11:23;;;;;;;9.48;7.05;;;25.70;99.90;;;;;;5053357;28;20056;-83
2021/06/20 10:13:49;;;;;;;10.45;7.95;;;26.50;99.90;;;;;;5053307;28;20471;-83
2021/06/20 10:16:20;;;;;;;11.60;8.68;;;27.00;99.90;;;;;;5054661;28;20017;-81
2021/06/20 10:18:56;;;;;;;10.95;9.38;;;27.20;99.90;;;;;;5060720;28;20103;-82
2021/06/20 10:21:45;;;;;;;9.48;7.63;;;27.50;99.90;;;;;;5053508;28;20035;-81
2021/06/20 10:24:17;;;;;;;9.82;8.13;;;27.90;99.90;;;;;;5055295;28;20021;-82
2021/06/20 10:27:06;;;;;;;9.57;7.05;;;27.80;99.90;;;;;;5053373;28;20024;-82
2021/06/20 10:29:35;;;;;;;8.30;7.03;;;28.00;99.90;;;;;;5053509;28;20377;-82
2021/06/20 10:32:26;;;;;;;8.13;6.75;;;28.00;99.90;;;;;;5061752;28;20028;-82
2021/06/20 10:35:04;;;;;;;8.38;7.05;;;28.40;99.90;;;;;;5057708;28;20021;-81
2021/06/20 10:38:01;;;;;;;7.80;6.40;;;28.80;99.00;;;;;;5051993;28;20036;-83
2021/06/20 10:40:32;;;;;;;8.52;7.03;;;28.90;98.70;;;;;;5044414;28;20496;-81
2021/06/20 10:43:27;;;;;;;7.22;6.13;;;28.70;97.70;;;;;;5054356;28;20021;-82
2021/06/20 10:46:15;;;;;;;7.93;6.60;;;28.90;97.40;;;;;;5052448;28;20094;-83
2021/06/20 10:48:41;;;;;;;8.43;6.85;;;28.60;96.90;;;;;;5052353;28;20041;-82
2021/06/20 10:51:17;;;;;;;8.10;6.55;;;28.20;96.80;;;;;;5053793;28;20054;-83
2021/06/20 10:53:52;;;;;;;7.50;6.15;;;27.80;97.60;;;;;;5052928;28;20031;-82
2021/06/20 10:56:23;;;;;;;8.27;7.00;;;27.40;98.00;;;;;;5036697;28;20055;-81
2021/06/20 10:58:52;;;;;;;7.05;5.88;;;27.00;97.70;;;;;;5052369;28;20143;-82
2021/06/20 11:01:19;;;;;;;8.27;6.63;;;27.10;97.80;;;;;;5052220;28;20067;-81
2021/06/20 11:03:54;;;;;;;8.65;6.68;;;27.50;96.90;;;;;;5054057;28;20021;-83
2021/06/20 11:06:24;;;;;;;7.25;6.20;;;27.70;96.80;;;;;;5052437;28;20025;-81
2021/06/20 11:09:06;;;;;;;8.98;6.13;;;28.30;97.10;;;;;;5052043;28;20033;-83
2021/06/20 11:11:57;;;;;;;7.43;6.38;;;28.70;96.30;;;;;;5051150;28;20140;-83
2021/06/20 11:14:41;;;;;;;8.40;6.50;;;28.70;96.50;;;;;;5052391;28;20029;-84
2021/06/20 11:17:14;;;;;;;7.85;6.40;;;28.10;97.20;;;;;;5053520;28;20028;-84
2021/06/20 11:19:40;;;;;;;6.57;5.05;;;27.80;97.60;;;;;;5035959;28;20044;-83
2021/06/20 11:22:12;;;;;;;6.20;4.97;;;27.50;97.80;;;;;;5053899;28;20100;-83
2021/06/20 11:24:42;;;;;;;5.90;4.32;;;27.10;97.60;;;;;;5048179;28;20029;-84
2021/06/20 11:27:13;;;;;;;6.20;5.05;;;26.80;98.30;;;;;;5053625;28;20036;-84
2021/06/20 11:29:47;;;;;;;6.72;5.00;;;27.10;96.80;;;;;;5053686;28;20112;-84
2021/06/20 11:32:36;;;;;;;5.30;4.78;;;26.90;96.20;;;;;;5053823;28;20021;-83
2021/06/20 11:35:08;;;;;;;5.50;4.15;;;26.60;97.20;;;;;;5056325;28;20040;-84
2021/06/20 11:37:46;;;;;;;8.25;6.90;;;26.70;98.30;;;;;;5065276;28;20001;-84
2021/06/20 11:40:32;;;;;;;6.93;6.22;;;27.00;97.80;;;;;;5075317;28;20036;-85
2021/06/20 11:43:03;;;;;;;7.25;6.50;;;27.90;97.90;;;;;;5054581;28;20024;-86
2021/06/20 11:49:07;;;;;;;7.57;5.65;;;29.00;96.30;;;;;;5053383;28;20056;-84
2021/06/20 11:51:41;;;;;;;7.70;5.20;;;29.10;96.50;;;;;;5051848;28;20386;-86
2021/06/20 11:54:17;;;;;;;6.18;4.97;;;28.80;96.10;;;;;;5053204;28;20013;-86
2021/06/20 11:56:47;;;;;;;6.18;5.20;;;28.80;95.80;;;;;;5053289;28;20036;-85
2021/06/20 11:59:32;;;;;;;4.95;3.92;;;29.00;94.50;;;;;;5055279;28;20087;-85
2021/06/20 12:02:06;;;;;;;5.43;4.13;;;28.90;94.10;;;;;;5056024;28;20029;-85
2021/06/20 12:04:53;;;;;;;4.80;3.92;;;28.80;93.80;;;;;;5056539;28;20108;-84
2021/06/20 12:07:34;;;;;;;5.78;4.45;;;29.10;94.00;;;;;;5041906;28;20082;-87
2021/06/20 12:10:03;;;;;;;6.20;4.43;;;29.30;93.40;;;;;;5057713;28;20025;-86
2021/06/20 12:12:32;;;;;;;5.35;4.40;;;29.10;93.20;;;;;;5053366;28;20041;-85
2021/06/20 12:15:14;;;;;;;6.20;4.60;;;29.00;93.00;;;;;;5055212;28;20040;-85
2021/06/20 12:21:52;;;;;;;5.90;3.83;;;28.60;92.50;;;;;;5038693;28;20032;-86
2021/06/20 12:25:03;;;;;;;5.13;3.90;;;27.80;92.90;;;;;;5055353;28;20025;-86
2021/06/20 12:28:35;;;;;;;;;;;;;;;;;;;;;
2021/06/20 12:35:33;;;;;;;;;;;;;;;;;;;;;
2021/06/20 12:38:41;;;;;;;;;;;;;;;;;;;;;
2021/06/20 12:41:19;;;;;;;4.18;3.42;;;30.50;91.40;;;;;;5072745;28;20045;-85
2021/06/20 12:48:07;;;;;;;;;;;;;;;;;;;;;
2021/06/20 13:51:05;;;;;;;;;;;;;;;;;;;;;
2021/06/20 13:54:30;;;;;;;;;;;;;;;;;;;;;
2021/06/20 14:46:48;;;;;;;3.03;1.50;;;32.40;82.80;;;;;;4955646;28;20071;-84
2021/06/20 14:52:19;;;;;;;2.63;2.03;;;31.70;79.90;;;;;;4931436;29;20216;-84
2021/06/20 14:58:18;;;;;;;1.75;1.20;;;30.90;79.90;;;;;;4949064;28;20482;-84
2021/06/20 15:10:57;;;;;;;2.40;1.75;;;29.50;83.60;;;;;;4963199;28;20038;-83
2021/06/20 15:14:21;;;;;;;2.30;1.92;;;30.10;84.40;;;;;;4971187;28;20097;-86
2021/06/20 15:18:23;;;;;;;3.42;1.70;;;31.00;82.70;;;;;;4954210;28;20537;-84
2021/06/20 15:20:53;;;;;;;;;;;;;;;;;;;;;
2021/06/20 15:23:55;;;;;;;;;;;;;;;;;;;;;